Time;durP1;ratioP1;P1;durP2;ratioP2;P2;SDS_P1;SDS_P2;PMS_P1;PMS_P2;Temp;Humidity;BMP_temperature;BMP_pressure;BME280_temperature;BME280_humidity;BME280_pressure;Samples;Min_cycle;Max_cycle;Signal;HPM_P1;HPM_P2
2023/09/09 00:01:08;;;;;;;3.03;1.50;;;;;;;11.54;71.89;99649.47;5078099;27;20416;-76
2023/09/09 00:03:34;;;;;;;2.05;1.67;;;;;;;11.54;72.13;99686.84;5115993;27;20034;-75
2023/09/09 00:06:12;;;;;;;2.42;1.58;;;;;;;11.60;72.61;99654.34;5122463;27;20054;-75
2023/09/09 00:08:39;;;;;;;2.08;1.00;;;;;;;11.57;72.38;99660.75;5102456;27;20531;-72
2023/09/09 00:11:04;;;;;;;3.28;1.83;;;;;;;11.58;72.11;99667.81;5120391;27;20050;-74
2023/09/09 00:13:29;;;;;;;4.35;1.85;;;;;;;11.58;72.28;99673.16;5121746;27;20064;-73
2023/09/09 00:15:55;;;;;;;2.20;1.58;;;;;;;11.60;72.88;99659.69;5121739;27;20405;-74
2023/09/09 00:18:21;;;;;;;2.92;1.40;;;;;;;11.58;72.63;99688.31;5100902;27;20045;-72
2023/09/09 00:20:46;;;;;;;1.95;1.40;;;;;;;11.59;72.52;99674.00;5102960;27;20047;-72
2023/09/09 00:23:12;;;;;;;4.55;1.63;;;;;;;11.60;72.78;99670.38;5102854;27;20034;-71
2023/09/09 00:25:39;;;;;;;2.70;1.95;;;;;;;11.56;73.04;99667.06;5121824;27;20042;-72
2023/09/09 00:28:05;;;;;;;2.75;1.90;;;;;;;11.58;73.34;99683.84;5102530;27;20038;-73
2023/09/09 00:30:30;;;;;;;2.97;2.45;;;;;;;11.56;73.29;99684.91;5103117;27;20035;-73
2023/09/09 00:32:58;;;;;;;4.90;1.88;;;;;;;11.55;73.27;99668.03;5085551;27;20528;-71
2023/09/09 00:35:23;;;;;;;2.20;1.67;;;;;;;11.57;73.50;99713.31;5081599;27;20053;-72
2023/09/09 00:37:49;;;;;;;1.92;1.67;;;;;;;11.54;73.01;99670.81;5117739;27;20042;-73
2023/09/09 00:40:14;;;;;;;2.50;1.65;;;;;;;11.52;73.34;99688.75;5096714;27;20051;-74
2023/09/09 00:42:39;;;;;;;2.72;1.92;;;;;;;11.49;73.78;99689.88;5065374;27;20506;-76
2023/09/09 00:45:05;;;;;;;3.25;1.58;;;;;;;11.48;73.85;99682.81;5099267;27;20049;-76
2023/09/09 00:47:32;;;;;;;1.85;1.60;;;;;;;11.48;73.81;99676.63;5099543;27;20038;-76
2023/09/09 00:49:58;;;;;;;1.90;1.38;;;;;;;11.42;73.93;99677.06;5070667;27;20047;-82
2023/09/09 00:52:24;;;;;;;3.72;1.58;;;;;;;11.38;74.14;99678.28;5120063;27;20038;-77
2023/09/09 00:54:49;;;;;;;1.90;1.40;;;;;;;11.32;74.32;99682.25;5101789;27;20424;-82
2023/09/09 00:57:16;;;;;;;3.38;1.88;;;;;;;11.29;74.64;99709.16;5121559;27;20034;-82
2023/09/09 00:59:41;;;;;;;5.22;1.92;;;;;;;11.25;74.82;99691.69;5102347;27;20046;-80
2023/09/09 01:02:07;;;;;;;2.53;1.25;;;;;;;11.24;74.61;99701.50;5113657;27;20038;-71
2023/09/09 01:04:32;;;;;;;2.40;1.85;;;;;;;11.24;75.29;99696.16;5081540;27;20047;-70
2023/09/09 01:07:01;;;;;;;3.65;1.30;;;;;;;11.23;75.05;99693.59;5118162;27;20537;-70
2023/09/09 01:09:26;;;;;;;1.48;1.38;;;;;;;11.20;74.91;99716.00;5117992;27;20049;-67
2023/09/09 01:11:52;;;;;;;2.22;1.52;;;;;;;11.21;75.39;99707.03;5080885;27;20046;-68
2023/09/09 01:14:20;;;;;;;4.10;2.05;;;;;;;11.21;75.30;99709.72;5099642;27;20050;-70
2023/09/09 01:16:50;;;;;;;3.72;2.33;;;;;;;11.22;74.78;99716.75;5099880;27;20041;-68
2023/09/09 01:19:18;;;;;;;3.90;2.30;;;;;;;11.25;74.70;99726.38;5117661;27;20409;-70
2023/09/09 01:21:45;;;;;;;3.67;1.88;;;;;;;11.24;74.36;99717.50;5117622;27;20046;-69
2023/09/09 01:24:15;;;;;;;4.32;2.40;;;;;;;11.26;74.85;99720.06;5117741;27;20042;-72
2023/09/09 01:26:45;;;;;;;4.88;2.47;;;;;;;11.21;74.87;99728.41;5099527;27;20427;-71
2023/09/09 01:29:10;;;;;;;2.10;1.88;;;;;;;11.21;74.88;99732.88;5115859;27;20058;-69
2023/09/09 01:31:36;;;;;;;3.17;2.05;;;;;;;11.21;75.34;99707.03;5111453;27;20070;-68
2023/09/09 01:34:01;;;;;;;3.22;2.47;;;;;;;11.21;75.03;99704.38;5114690;27;20042;-67
2023/09/09 01:36:28;;;;;;;4.10;2.50;;;;;;;11.21;75.23;99715.06;5116549;27;20504;-66
2023/09/09 01:38:53;;;;;;;3.03;2.03;;;;;;;11.21;75.17;99712.38;5099070;27;20043;-68
2023/09/09 01:41:18;;;;;;;3.25;2.30;;;;;;;11.20;74.81;99702.66;5117230;27;20498;-69
2023/09/09 01:43:43;;;;;;;4.40;2.80;;;;;;;11.19;75.53;99708.13;5117376;27;20050;-68
2023/09/09 01:46:09;;;;;;;4.15;2.33;;;;;;;11.20;75.39;99709.81;5080656;27;20045;-68
2023/09/09 01:48:34;;;;;;;2.63;2.42;;;;;;;11.19;75.48;99724.97;5098925;27;20065;-68
2023/09/09 01:50:59;;;;;;;6.65;2.47;;;;;;;11.20;75.91;99712.50;5117229;27;20039;-67
2023/09/09 01:53:25;;;;;;;4.30;3.05;;;;;;;11.21;75.63;99749.75;5117567;27;20043;-68
2023/09/09 01:55:51;;;;;;;3.65;2.72;;;;;;;11.23;76.18;99720.28;5098804;27;20049;-68
2023/09/09 01:58:16;;;;;;;3.47;2.45;;;;;;;11.23;75.63;99721.13;5098592;27;20053;-69
2023/09/09 02:00:42;;;;;;;3.83;2.58;;;;;;;11.22;76.35;99718.56;5097000;27;20035;-80
2023/09/09 02:03:08;;;;;;;3.65;2.45;;;;;;;11.24;75.60;99722.00;5099763;27;20061;-76
2023/09/09 02:05:34;;;;;;;4.22;2.33;;;;;;;11.26;75.88;99720.06;5090411;27;20039;-77
2023/09/09 02:07:59;;;;;;;6.50;2.70;;;;;;;11.26;75.60;99722.75;5096147;27;20053;-77
2023/09/09 02:10:25;;;;;;;5.05;2.25;;;;;;;11.27;76.20;99727.97;5099906;27;20039;-75
2023/09/09 02:12:50;;;;;;;3.05;2.40;;;;;;;11.28;76.15;99715.47;5094731;27;20107;-76
2023/09/09 02:15:16;;;;;;;4.03;2.65;;;;;;;11.27;76.01;99743.13;5097810;27;20042;-80
2023/09/09 02:17:42;;;;;;;4.97;3.55;;;;;;;11.27;75.92;99717.28;5119018;27;20042;-78
2023/09/09 02:20:08;;;;;;;5.60;3.17;;;;;;;11.28;76.26;99731.50;5118503;27;20037;-74
2023/09/09 02:22:33;;;;;;;6.13;3.08;;;;;;;11.28;75.85;99734.16;5116690;27;20046;-76
2023/09/09 02:24:59;;;;;;;5.05;2.47;;;;;;;11.27;76.47;99753.81;5099106;27;20038;-75
2023/09/09 02:27:24;;;;;;;11.38;3.10;;;;;;;11.22;76.20;99739.91;5093959;27;20097;-72
2023/09/09 02:29:50;;;;;;;5.95;3.60;;;;;;;11.18;76.25;99754.44;5111946;27;20054;-71
2023/09/09 02:32:16;;;;;;;5.40;3.92;;;;;;;11.13;76.37;99741.44;5097119;27;20034;-73
2023/09/09 02:34:42;;;;;;;3.25;2.70;;;;;;;11.11;76.23;99746.03;5076536;27;20408;-74
2023/09/09 02:37:19;;;;;;;4.35;2.30;;;;;;;11.13;76.75;99761.94;5108109;27;20043;-72
2023/09/09 02:39:48;;;;;;;2.33;1.88;;;;;;;11.11;76.81;99761.19;5102233;27;20045;-72
2023/09/09 02:42:15;;;;;;;3.03;1.88;;;;;;;11.10;76.95;99757.66;5116169;27;20034;-73
2023/09/09 02:44:41;;;;;;;4.15;2.35;;;;;;;11.09;77.13;99787.97;5115938;27;20050;-72
2023/09/09 02:47:08;;;;;;;3.28;1.92;;;;;;;11.13;77.21;99756.59;5115920;27;20412;-73
2023/09/09 02:49:34;;;;;;;3.40;1.58;;;;;;;11.12;76.76;99781.56;5097099;27;20049;-75
2023/09/09 02:51:59;;;;;;;2.40;1.45;;;;;;;11.15;77.21;99770.69;5078717;27;20047;-76
2023/09/09 02:54:24;;;;;;;1.88;1.38;;;;;;;11.15;77.24;99765.34;5079124;27;20043;-75
2023/09/09 02:56:50;;;;;;;2.33;1.40;;;;;;;11.17;77.13;99779.44;5096977;27;20424;-75
2023/09/09 02:59:15;;;;;;;2.22;2.03;;;;;;;11.17;77.21;99774.94;5116198;27;20042;-72
2023/09/09 03:01:40;;;;;;;1.80;1.70;;;;;;;11.19;76.97;99782.84;5097933;27;20046;-76
2023/09/09 03:04:06;;;;;;;4.22;2.08;;;;;;;11.19;77.35;99777.50;5077479;27;20043;-75
2023/09/09 03:06:31;;;;;;;1.98;1.60;;;;;;;11.19;76.87;99767.69;5094308;27;20047;-74
2023/09/09 03:08:56;;;;;;;2.60;2.03;;;;;;;11.21;77.45;99808.44;5079808;27;20046;-74
2023/09/09 03:11:22;;;;;;;3.72;2.53;;;;;;;11.22;77.14;99783.47;5097523;27;20527;-75
2023/09/09 03:13:47;;;;;;;4.53;2.30;;;;;;;11.26;77.49;99781.44;5097053;27;20053;-75
2023/09/09 03:16:12;;;;;;;3.42;2.15;;;;;;;11.28;77.49;99790.22;5067973;27;20129;-72
2023/09/09 03:18:38;;;;;;;3.50;1.63;;;;;;;11.31;77.14;99795.28;5095341;27;20504;-73
2023/09/09 03:21:03;;;;;;;2.28;2.10;;;;;;;11.33;76.99;99788.03;5076959;28;20047;-72
2023/09/09 03:23:28;;;;;;;2.58;2.38;;;;;;;11.34;77.06;99791.56;5070014;27;20035;-73
2023/09/09 03:25:53;;;;;;;5.18;2.42;;;;;;;11.38;76.96;99806.41;5075232;27;20046;-72
2023/09/09 03:28:18;;;;;;;4.72;1.90;;;;;;;11.40;76.86;99796.47;5115393;27;20058;-70
2023/09/09 03:30:56;;;;;;;3.17;2.45;;;;;;;11.46;76.83;99807.56;5113689;27;20038;-70
2023/09/09 03:33:27;;;;;;;2.78;2.28;;;;;;;11.43;76.56;99804.25;5091764;27;20043;-71
2023/09/09 03:35:53;;;;;;;2.35;1.80;;;;;;;11.44;77.02;99824.63;5097167;27;20050;-69
2023/09/09 03:38:18;;;;;;;7.00;3.38;;;;;;;11.47;77.18;99824.41;5097106;27;20038;-69
2023/09/09 03:40:43;;;;;;;10.90;2.85;;;;;;;11.47;76.92;99798.56;5115687;27;20046;-70
2023/09/09 03:43:09;;;;;;;6.45;2.33;;;;;;;11.49;77.19;99804.66;5079382;27;20138;-69
2023/09/09 03:45:34;;;;;;;4.55;2.67;;;;;;;11.44;77.06;99808.63;5097229;27;20039;-70
2023/09/09 03:47:59;;;;;;;6.10;2.53;;;;;;;11.36;76.39;99809.19;5115686;27;20053;-70
2023/09/09 03:50:25;;;;;;;2.65;2.17;;;;;;;11.24;77.18;99818.91;5115551;27;20528;-70
2023/09/09 03:52:50;;;;;;;4.75;2.78;;;;;;;11.16;77.41;99825.78;5115700;27;20046;-70
2023/09/09 03:55:17;;;;;;;5.15;2.70;;;;;;;11.06;77.85;99814.88;5115627;27;20479;-70
2023/09/09 03:57:44;;;;;;;3.58;2.03;;;;;;;10.99;78.35;99808.28;5097452;27;20043;-70
2023/09/09 04:00:10;;;;;;;3.53;2.58;;;;;;;11.00;79.30;99803.78;5094173;28;20106;-71
2023/09/09 04:02:38;;;;;;;4.60;2.20;;;;;;;11.14;79.83;99823.22;5093544;28;20047;-70
2023/09/09 04:05:06;;;;;;;4.68;2.42;;;;;;;11.28;79.31;99831.09;5093637;27;20043;-70
2023/09/09 04:07:35;;;;;;;5.25;3.15;;;;;;;11.38;78.84;99831.28;5075730;28;20067;-69
2023/09/09 04:10:05;;;;;;;5.68;1.98;;;;;;;11.39;77.88;99832.13;5061328;27;20039;-69
2023/09/09 04:12:31;;;;;;;6.97;2.92;;;;;;;11.36;77.58;99843.03;5080160;27;20051;-69
2023/09/09 04:14:56;;;;;;;3.65;1.92;;;;;;;11.33;78.07;99830.75;5100274;27;20039;-70
2023/09/09 04:17:22;;;;;;;3.38;2.05;;;;;;;11.36;78.33;99833.19;5118686;27;20062;-69
2023/09/09 04:19:47;;;;;;;4.43;2.13;;;;;;;11.57;78.37;99833.47;5118928;27;20047;-69
2023/09/09 04:22:13;;;;;;;1.73;1.63;;;;;;;11.85;77.32;99814.47;5100890;27;20070;-71
2023/09/09 04:24:39;;;;;;;15.90;2.67;;;;;;;12.14;76.88;99820.34;5118951;27;20043;-71
2023/09/09 04:27:04;;;;;;;3.25;2.40;;;;;;;12.40;75.72;99813.03;5118817;27;20043;-71
2023/09/09 04:29:30;;;;;;;5.28;2.58;;;;;;;12.64;75.05;99813.78;5100405;27;20500;-70
2023/09/09 04:31:55;;;;;;;6.70;1.90;;;;;;;12.83;73.69;99817.72;5118613;27;20043;-70
2023/09/09 04:34:21;;;;;;;2.22;1.85;;;;;;;12.98;72.67;99844.13;5118799;27;20035;-71
2023/09/09 04:36:46;;;;;;;2.88;1.73;;;;;;;13.15;72.04;99810.72;5100492;27;20046;-71
2023/09/09 04:39:15;;;;;;;2.20;1.88;;;;;;;13.30;71.14;99819.38;5099928;27;20041;-70
2023/09/09 04:41:40;;;;;;;4.07;2.25;;;;;;;13.42;70.61;99815.72;5083608;27;20046;-70
2023/09/09 04:44:06;;;;;;;2.08;1.45;;;;;;;13.51;69.86;99788.19;5118681;27;20034;-70
2023/09/09 04:46:31;;;;;;;2.55;2.08;;;;;;;13.61;69.29;99817.75;5099929;27;20488;-70
2023/09/09 04:48:57;;;;;;;2.42;1.77;;;;;;;13.75;68.71;99812.97;5100008;27;20055;-71
2023/09/09 04:51:22;;;;;;;2.30;2.10;;;;;;;13.91;68.38;99865.31;5079069;27;20047;-70
2023/09/09 04:53:48;;;;;;;4.72;2.33;;;;;;;14.13;67.74;99839.28;5091546;27;20496;-71
2023/09/09 04:56:14;;;;;;;4.03;2.15;;;;;;;14.38;66.58;99826.50;5118788;27;20037;-71
2023/09/09 04:58:39;;;;;;;2.03;1.88;;;;;;;14.54;65.78;99824.28;5100915;27;20485;-71
2023/09/09 05:01:04;;;;;;;3.47;2.03;;;;;;;14.66;64.42;99831.28;5084122;27;20042;-71
2023/09/09 05:03:30;;;;;;;3.67;2.17;;;;;;;14.77;64.09;99833.91;5099994;27;20049;-71
2023/09/09 05:05:55;;;;;;;3.22;2.17;;;;;;;14.86;64.02;99821.50;5099768;27;20038;-71
2023/09/09 05:08:20;;;;;;;2.25;1.42;;;;;;;14.97;63.76;99824.13;5118293;27;20054;-72
2023/09/09 05:10:46;;;;;;;4.35;2.30;;;;;;;15.06;62.87;99827.84;5099776;27;20046;-71
2023/09/09 05:13:12;;;;;;;4.82;2.40;;;;;;;15.19;62.49;99839.22;5099897;27;20050;-71
2023/09/09 05:15:38;;;;;;;4.80;2.10;;;;;;;15.34;61.96;99791.34;5118193;27;20050;-72
2023/09/09 05:18:03;;;;;;;3.30;2.63;;;;;;;15.46;61.59;99836.75;5099559;27;20053;-71
2023/09/09 05:20:28;;;;;;;5.55;2.47;;;;;;;15.57;60.67;99844.78;5081821;27;20404;-71
2023/09/09 05:22:54;;;;;;;4.93;2.53;;;;;;;15.68;60.00;99851.03;5099397;27;20053;-72
2023/09/09 05:25:19;;;;;;;2.95;2.08;;;;;;;15.74;59.56;99855.84;5082389;27;20047;-72
2023/09/09 05:27:45;;;;;;;2.65;2.45;;;;;;;15.93;58.92;99855.88;5099188;27;20055;-71
2023/09/09 05:30:10;;;;;;;4.20;2.95;;;;;;;16.19;58.33;99853.53;5083046;27;20058;-73
2023/09/09 05:32:36;;;;;;;3.92;2.42;;;;;;;16.54;57.62;99840.38;5100831;27;20049;-73
2023/09/09 05:35:02;;;;;;;3.53;2.42;;;;;;;16.82;56.33;99821.66;5100479;27;20053;-73
2023/09/09 05:37:30;;;;;;;15.05;3.17;;;;;;;16.88;55.64;99848.88;5083176;27;20043;-72
2023/09/09 05:39:55;;;;;;;5.40;2.50;;;;;;;16.98;55.36;99849.69;5099340;27;20053;-71
2023/09/09 05:42:21;;;;;;;3.72;2.95;;;;;;;17.20;54.59;99850.34;5099298;27;20077;-70
2023/09/09 05:44:46;;;;;;;3.67;2.53;;;;;;;17.52;53.67;99852.63;5099062;27;20515;-71
2023/09/09 05:47:12;;;;;;;4.13;3.65;;;;;;;18.11;52.46;99860.28;5099124;27;20055;-70
2023/09/09 05:49:37;;;;;;;3.40;3.05;;;;;;;18.99;50.69;99854.00;5099067;27;20041;-71
2023/09/09 05:52:03;;;;;;;8.05;3.65;;;;;;;20.21;48.08;99860.84;5082201;27;20409;-71
2023/09/09 05:54:28;;;;;;;5.13;3.40;;;;;;;21.45;44.91;99863.41;5098796;27;20038;-72
2023/09/09 05:56:53;;;;;;;5.30;3.80;;;;;;;22.57;42.62;99855.75;5081713;27;20401;-71
2023/09/09 05:59:19;;;;;;;4.65;3.80;;;;;;;23.56;40.23;99864.72;5098827;27;20046;-71
2023/09/09 06:01:44;;;;;;;4.97;3.40;;;;;;;24.45;38.42;99856.22;5098908;27;20039;-70
2023/09/09 06:04:10;;;;;;;4.10;3.10;;;;;;;25.24;37.11;99861.56;5098882;27;20051;-71
2023/09/09 06:06:35;;;;;;;3.60;2.92;;;;;;;25.98;35.41;99875.47;5098679;27;20042;-73
2023/09/09 06:09:00;;;;;;;5.20;3.35;;;;;;;26.63;33.83;99869.41;5098454;27;20062;-71
2023/09/09 06:11:26;;;;;;;6.30;3.28;;;;;;;27.11;32.62;99856.41;5098425;27;20408;-70
2023/09/09 06:13:51;;;;;;;7.55;3.53;;;;;;;27.67;31.71;99860.56;5117123;27;20034;-72
2023/09/09 06:16:17;;;;;;;5.97;3.95;;;;;;;28.25;30.51;99868.81;5098261;27;20050;-74
2023/09/09 06:18:42;;;;;;;6.25;3.85;;;;;;;28.80;29.71;99883.69;5098458;27;20049;-72
2023/09/09 06:21:07;;;;;;;4.72;3.50;;;;;;;29.26;29.29;99867.69;5098102;27;20049;-72
2023/09/09 06:23:33;;;;;;;4.80;3.80;;;;;;;29.63;28.45;99865.03;5098301;27;20034;-73
2023/09/09 06:25:58;;;;;;;5.50;4.00;;;;;;;29.86;28.28;99873.44;5081188;27;20053;-73
2023/09/09 06:28:24;;;;;;;4.57;3.58;;;;;;;30.09;27.56;99871.94;5098294;27;20049;-73
2023/09/09 06:30:49;;;;;;;5.00;3.40;;;;;;;30.40;26.66;99876.38;5098322;27;20049;-72
2023/09/09 06:33:14;;;;;;;4.50;3.83;;;;;;;30.64;26.70;99842.41;5097574;27;20041;-72
2023/09/09 06:35:50;;;;;;;5.25;3.75;;;;;;;31.22;26.21;99869.22;5080527;27;20058;-71
2023/09/09 06:38:17;;;;;;;4.25;3.28;;;;;;;31.35;25.46;99867.09;5098174;27;20054;-71
2023/09/09 06:40:46;;;;;;;4.57;3.92;;;;;;;31.81;24.60;99875.59;5116361;27;20523;-72
2023/09/09 06:43:20;;;;;;;4.55;3.63;;;;;;;32.15;24.30;99871.91;5116863;27;20043;-72
2023/09/09 06:45:45;;;;;;;3.58;3.28;;;;;;;32.53;23.47;99876.81;5116478;27;20053;-71
2023/09/09 06:48:10;;;;;;;4.28;3.33;;;;;;;32.00;24.14;99901.94;5098322;27;20038;-70
2023/09/09 06:50:36;;;;;;;7.05;4.55;;;;;;;30.90;25.23;99890.72;5098184;27;20133;-71
2023/09/09 06:53:01;;;;;;;8.35;4.03;;;;;;;29.62;26.46;99871.59;5116141;27;20042;-71
2023/09/09 06:55:26;;;;;;;4.50;3.80;;;;;;;28.37;27.95;99878.03;5116377;27;20057;-71
2023/09/09 06:57:51;;;;;;;6.38;4.35;;;;;;;27.16;29.42;99874.09;5115982;27;20034;-70
2023/09/09 07:00:16;;;;;;;6.55;3.67;;;;;;;25.92;30.91;99882.59;5115864;27;20401;-71
2023/09/09 07:02:42;;;;;;;8.48;4.20;;;;;;;24.88;32.47;99917.06;5116103;27;20038;-73
2023/09/09 07:05:07;;;;;;;7.95;3.88;;;;;;;24.07;33.32;99885.50;5097735;27;20046;-72
2023/09/09 07:07:33;;;;;;;6.55;3.50;;;;;;;23.49;33.98;99898.09;5116215;27;20596;-71
2023/09/09 07:09:59;;;;;;;5.15;3.53;;;;;;;23.05;34.91;99910.75;5116061;27;20469;-72
2023/09/09 07:12:24;;;;;;;4.10;2.72;;;;;;;22.57;35.18;99907.38;5079559;27;20409;-73
2023/09/09 07:14:49;;;;;;;4.85;3.20;;;;;;;22.12;36.03;99919.03;5116180;27;20072;-74
2023/09/09 07:17:14;;;;;;;6.55;3.42;;;;;;;22.43;35.95;99919.00;5116189;27;20057;-72
2023/09/09 07:19:40;;;;;;;3.17;2.65;;;;;;;22.78;35.21;99921.19;5116326;27;20043;-71
2023/09/09 07:22:05;;;;;;;5.90;2.97;;;;;;;22.56;35.53;99949.16;5116062;27;20043;-72
2023/09/09 07:24:30;;;;;;;4.20;2.88;;;;;;;22.08;36.06;99923.09;5097583;27;20051;-71
2023/09/09 07:26:58;;;;;;;3.42;3.10;;;;;;;21.58;37.14;99937.81;5097639;27;20038;-72
2023/09/09 07:29:23;;;;;;;4.38;3.22;;;;;;;22.06;36.93;99927.84;5096697;27;20066;-71
2023/09/09 07:31:48;;;;;;;5.68;3.30;;;;;;;23.28;35.72;99922.44;5115982;27;20393;-73
2023/09/09 07:34:13;;;;;;;3.95;3.20;;;;;;;23.76;34.08;99933.91;5115779;27;20051;-72
2023/09/09 07:36:38;;;;;;;3.75;2.83;;;;;;;23.59;34.27;99929.69;5115863;27;20046;-72
2023/09/09 07:39:04;;;;;;;6.22;3.22;;;;;;;23.13;34.93;99887.06;5079267;27;20420;-72
2023/09/09 07:41:29;;;;;;;4.82;3.60;;;;;;;22.50;35.58;99938.16;5079856;27;20043;-72
2023/09/09 07:43:55;;;;;;;4.57;3.05;;;;;;;21.92;36.86;99933.97;5117604;27;20053;-71
2023/09/09 07:46:20;;;;;;;3.50;3.20;;;;;;;21.35;37.31;99963.94;5119565;27;20061;-71
2023/09/09 07:48:45;;;;;;;3.10;2.60;;;;;;;20.85;38.56;99945.97;5101216;27;20045;-71
2023/09/09 07:51:10;;;;;;;6.32;2.85;;;;;;;20.42;39.03;99959.78;5119681;27;20908;-70
2023/09/09 07:53:35;;;;;;;4.70;2.55;;;;;;;20.06;39.53;99956.41;5119762;27;20046;-71
2023/09/09 07:56:01;;;;;;;12.88;3.53;;;;;;;19.74;40.25;99949.81;5119373;27;20038;-71
2023/09/09 07:58:26;;;;;;;5.35;3.15;;;;;;;19.45;41.00;99950.09;5099993;27;20054;-71
2023/09/09 08:01:01;;;;;;;4.38;2.92;;;;;;;19.36;42.02;99982.66;5100932;27;20047;-70
2023/09/09 08:03:26;;;;;;;2.67;2.47;;;;;;;19.19;41.95;99943.81;5101027;27;20051;-70
2023/09/09 08:05:56;;;;;;;6.18;2.50;;;;;;;19.20;42.15;99973.41;5100890;27;20081;-71
2023/09/09 08:08:21;;;;;;;5.03;3.03;;;;;;;19.10;42.00;99953.72;5099840;27;20050;-70
2023/09/09 08:10:46;;;;;;;7.20;3.25;;;;;;;18.93;42.14;99954.59;5119355;27;20039;-71
2023/09/09 08:13:11;;;;;;;4.88;2.90;;;;;;;18.75;42.35;99951.91;5119454;27;20434;-72
2023/09/09 08:15:37;;;;;;;3.10;2.72;;;;;;;18.56;43.33;99957.41;5119132;27;20037;-72
2023/09/09 08:18:02;;;;;;;3.80;3.00;;;;;;;18.42;43.74;99977.69;5119101;27;20412;-72
2023/09/09 08:20:28;;;;;;;3.70;2.25;;;;;;;18.27;43.68;99973.81;5118926;27;20409;-72
2023/09/09 08:22:53;;;;;;;3.67;2.08;;;;;;;18.08;44.29;99963.09;5118909;27;20057;-71
2023/09/09 08:25:18;;;;;;;3.25;2.65;;;;;;;17.92;44.92;99965.59;5119043;27;20508;-70
2023/09/09 08:27:44;;;;;;;4.93;3.45;;;;;;;17.74;45.47;99971.75;5118892;27;20053;-70
2023/09/09 08:30:10;;;;;;;2.60;2.08;;;;;;;17.59;45.52;99956.19;5099813;27;20053;-70
2023/09/09 08:32:35;;;;;;;2.17;1.95;;;;;;;17.44;45.58;99969.28;5118543;27;20035;-70
2023/09/09 08:35:00;;;;;;;5.50;2.67;;;;;;;17.33;45.91;99956.81;5118899;27;20034;-71
2023/09/09 08:37:25;;;;;;;2.70;2.03;;;;;;;17.19;46.09;99942.94;5099820;27;20162;-70
2023/09/09 08:39:54;;;;;;;5.13;2.47;;;;;;;17.14;46.61;99966.78;5118632;27;20137;-70
2023/09/09 08:42:44;;;;;;;2.47;1.73;;;;;;;17.20;46.97;99950.03;5099967;27;20046;-70
2023/09/09 08:45:18;;;;;;;4.05;2.00;;;;;;;17.05;46.95;99973.84;5118495;27;20504;-71
2023/09/09 08:47:45;;;;;;;3.13;2.22;;;;;;;16.86;46.92;99968.47;5100222;27;20042;-71
2023/09/09 08:50:13;;;;;;;3.72;2.00;;;;;;;16.75;47.23;99965.94;5118266;27;20092;-71
2023/09/09 08:52:40;;;;;;;4.32;2.05;;;;;;;16.63;47.97;99971.44;5100190;27;20493;-71
2023/09/09 08:55:05;;;;;;;1.67;1.58;;;;;;;16.54;48.27;99957.94;5081637;27;20049;-72
2023/09/09 08:57:32;;;;;;;5.20;1.77;;;;;;;16.50;48.34;99973.50;5118647;27;20054;-71
2023/09/09 09:00:01;;;;;;;3.55;1.75;;;;;;;16.48;48.42;99990.81;5099070;27;20038;-72
2023/09/09 09:02:29;;;;;;;1.75;1.45;;;;;;;16.45;48.11;99975.78;5118404;27;20065;-72
2023/09/09 09:04:56;;;;;;;2.22;1.70;;;;;;;16.44;48.21;99960.63;5118174;27;20039;-72
2023/09/09 09:07:22;;;;;;;4.93;2.33;;;;;;;16.43;48.45;99972.38;5102127;27;20069;-70
2023/09/09 09:09:48;;;;;;;2.50;2.05;;;;;;;16.46;48.50;99965.88;5118389;27;20049;-72
2023/09/09 09:12:14;;;;;;;2.63;1.85;;;;;;;16.50;48.78;99970.81;5118088;27;20038;-71
2023/09/09 09:14:46;;;;;;;6.28;2.10;;;;;;;16.59;49.04;99969.16;5082667;27;20420;-72
2023/09/09 09:17:12;;;;;;;2.80;1.83;;;;;;;16.52;48.17;99976.06;5118223;27;20042;-73
2023/09/09 09:19:37;;;;;;;4.20;1.40;;;;;;;16.54;48.08;99969.56;5099567;27;20547;-72
2023/09/09 09:22:03;;;;;;;2.42;1.88;;;;;;;16.50;47.87;99968.13;5098912;27;20050;-72
2023/09/09 09:24:28;;;;;;;3.08;1.25;;;;;;;16.44;47.95;99941.78;5100068;27;20057;-73
2023/09/09 09:26:55;;;;;;;1.98;1.63;;;;;;;16.41;48.27;99962.72;5118165;27;20031;-74
2023/09/09 09:29:20;;;;;;;2.88;1.58;;;;;;;16.37;48.63;99961.31;5118213;27;20058;-74
2023/09/09 09:31:53;;;;;;;4.72;2.35;;;;;;;16.44;49.03;99965.16;5118154;27;20062;-72
2023/09/09 09:34:19;;;;;;;1.70;1.60;;;;;;;16.41;48.53;99919.69;5098796;27;20057;-72
2023/09/09 09:36:45;;;;;;;3.58;1.88;;;;;;;16.41;48.82;99968.97;5099422;27;20113;-72
2023/09/09 09:39:10;;;;;;;3.33;1.90;;;;;;;16.45;48.45;99950.72;5098867;27;20420;-72
2023/09/09 09:41:38;;;;;;;2.22;1.48;;;;;;;16.46;49.00;99950.59;5117217;27;20056;-72
2023/09/09 09:44:04;;;;;;;2.67;1.92;;;;;;;16.47;49.22;99949.59;5117110;27;20096;-72
2023/09/09 09:46:30;;;;;;;9.38;2.15;;;;;;;16.40;49.17;99950.25;5098665;27;20489;-72
2023/09/09 09:48:55;;;;;;;2.47;1.90;;;;;;;16.33;49.19;99950.84;5117053;27;20042;-71
2023/09/09 09:51:20;;;;;;;1.80;1.55;;;;;;;16.28;49.55;99947.69;5114372;27;20042;-72
2023/09/09 09:53:48;;;;;;;3.30;1.75;;;;;;;16.21;49.99;99951.09;5116935;27;20049;-72
2023/09/09 09:56:14;;;;;;;3.25;1.60;;;;;;;16.12;49.95;99950.09;5116770;27;20046;-71
2023/09/09 09:58:44;;;;;;;10.30;2.20;;;;;;;16.10;50.14;99976.25;5084245;27;20532;-71
2023/09/09 10:01:10;;;;;;;4.40;1.77;;;;;;;16.06;50.27;99952.44;5116438;27;20038;-73
2023/09/09 10:03:51;;;;;;;2.50;2.22;;;;;;;16.16;50.68;99956.00;5114028;27;20123;-73
2023/09/09 10:06:24;;;;;;;5.80;2.92;;;;;;;16.11;50.56;99947.53;5097468;27;20042;-71
2023/09/09 10:09:18;;;;;;;2.30;1.60;;;;;;;16.14;50.83;99939.19;5097277;27;20057;-71
2023/09/09 10:11:59;;;;;;;5.93;2.10;;;;;;;16.19;51.23;99948.53;5080170;27;20054;-71
2023/09/09 10:14:26;;;;;;;3.58;1.98;;;;;;;16.30;50.90;99955.63;5089603;27;20057;-71
2023/09/09 10:16:53;;;;;;;7.15;2.35;;;;;;;16.44;50.86;99959.78;5112563;27;20440;-70
2023/09/09 10:19:19;;;;;;;6.70;2.20;;;;;;;16.55;50.72;99949.72;5116352;27;20060;-71
2023/09/09 10:21:50;;;;;;;6.68;2.85;;;;;;;16.63;50.44;99957.13;5095795;27;20046;-70
2023/09/09 10:24:16;;;;;;;6.38;2.67;;;;;;;16.68;50.71;99942.28;5115554;27;20038;-71
2023/09/09 10:26:42;;;;;;;8.43;2.60;;;;;;;16.80;50.57;99942.97;5063423;27;20054;-70
2023/09/09 10:29:08;;;;;;;4.88;2.45;;;;;;;16.93;50.40;99943.53;5076886;27;20055;-70
2023/09/09 10:31:35;;;;;;;3.03;2.13;;;;;;;17.00;49.93;99944.66;5087418;27;20058;-71
2023/09/09 10:34:01;;;;;;;4.80;2.53;;;;;;;16.98;50.10;99946.66;5096600;27;20490;-71
2023/09/09 10:36:29;;;;;;;6.38;2.47;;;;;;;16.93;50.52;99951.59;5116290;27;20847;-71
2023/09/09 10:38:58;;;;;;;5.30;2.08;;;;;;;16.87;50.45;99948.63;5115040;27;20057;-71
2023/09/09 10:41:24;;;;;;;4.68;2.28;;;;;;;16.89;50.15;99944.81;5083667;27;20054;-71
2023/09/09 10:43:49;;;;;;;4.28;2.22;;;;;;;16.95;50.35;99963.09;5115667;27;20397;-72
2023/09/09 10:46:14;;;;;;;3.00;2.13;;;;;;;16.95;50.32;99943.38;5097413;27;20038;-73
2023/09/09 10:48:43;;;;;;;3.90;2.05;;;;;;;16.92;50.51;99938.31;5114003;27;20443;-73
2023/09/09 10:51:09;;;;;;;6.07;2.53;;;;;;;16.79;50.93;99935.91;5097095;27;20034;-73
2023/09/09 10:53:35;;;;;;;3.22;2.58;;;;;;;16.77;51.02;99932.50;5115673;27;20385;-73
2023/09/09 10:56:21;;;;;;;2.58;2.00;;;;;;;16.84;51.27;99938.16;5096415;27;20060;-72
2023/09/09 10:58:50;;;;;;;5.30;2.13;;;;;;;16.67;51.86;99945.09;5115789;27;20049;-70
2023/09/09 11:01:26;;;;;;;4.78;2.88;;;;;;;16.64;51.79;99938.16;5115567;27;20046;-71
2023/09/09 11:03:52;;;;;;;3.65;2.03;;;;;;;16.52;52.19;99941.94;5115957;27;20039;-72
2023/09/09 11:06:25;;;;;;;2.70;2.00;;;;;;;16.49;52.50;99944.91;5092329;27;20047;-71
2023/09/09 11:08:56;;;;;;;6.38;2.97;;;;;;;16.46;52.94;99938.97;5110681;27;20058;-70
2023/09/09 11:11:25;;;;;;;4.90;2.30;;;;;;;16.43;53.28;99956.22;5097216;27;20393;-70
2023/09/09 11:13:52;;;;;;;4.85;2.30;;;;;;;16.36;53.55;99976.63;5116128;27;20061;-69
2023/09/09 11:16:40;;;;;;;4.43;2.13;;;;;;;16.47;53.82;99952.28;5113468;27;20057;-70
2023/09/09 11:19:14;;;;;;;4.07;2.92;;;;;;;16.43;54.02;99948.16;5096527;27;20050;-71
2023/09/09 11:21:47;;;;;;;4.35;3.03;;;;;;;16.46;54.11;99944.34;5115049;27;20054;-71
2023/09/09 11:24:13;;;;;;;3.55;2.67;;;;;;;16.38;53.89;99953.09;5115492;27;20050;-71
2023/09/09 11:26:40;;;;;;;3.10;1.95;;;;;;;16.34;54.23;99949.00;5115267;27;20075;-71
2023/09/09 11:29:06;;;;;;;6.10;2.40;;;;;;;16.32;54.22;99942.91;5112383;27;20050;-70
2023/09/09 11:31:31;;;;;;;10.50;3.47;;;;;;;16.33;54.60;99939.22;5112311;27;20047;-70